Time;durP1;ratioP1;P1;durP2;ratioP2;P2;SDS_P1;SDS_P2;PMS_P1;PMS_P2;Temp;Humidity;BMP_temperature;BMP_pressure;BME280_temperature;BME280_humidity;BME280_pressure;Samples;Min_cycle;Max_cycle;Signal;HPM_P1;HPM_P2
2023/11/14 00:01:09;;;;;;;13.00;12.30;;;12.30;1.00;;;;;;4884679;29;20436;-42
2023/11/14 00:03:35;;;;;;;12.60;12.00;;;12.30;1.00;;;;;;4884299;29;20280;-43
2023/11/14 00:06:02;;;;;;;13.43;12.63;;;12.30;1.00;;;;;;4884254;29;20662;-40
2023/11/14 00:08:28;;;;;;;11.87;11.37;;;12.30;1.00;;;;;;4885423;29;20261;-38
2023/11/14 00:10:54;;;;;;;12.20;11.60;;;12.20;1.00;;;;;;4885132;29;20443;-40
2023/11/14 00:13:20;;;;;;;11.97;11.47;;;12.20;1.00;;;;;;4884323;29;20541;-49
2023/11/14 00:15:45;;;;;;;12.63;12.03;;;12.30;1.00;;;;;;4884313;29;20618;-40
2023/11/14 00:18:11;;;;;;;12.93;12.23;;;12.30;1.00;;;;;;4884585;29;20235;-41
2023/11/14 00:20:37;;;;;;;12.43;11.83;;;12.20;1.00;;;;;;4885429;29;20187;-40
2023/11/14 00:23:02;;;;;;;13.50;12.70;;;12.20;1.00;;;;;;4885292;29;20239;-40
2023/11/14 00:25:28;;;;;;;13.40;12.60;;;12.20;1.00;;;;;;4885288;29;20194;-41
2023/11/14 00:27:54;;;;;;;13.20;12.40;;;12.20;1.00;;;;;;4885603;29;20187;-39
2023/11/14 00:30:19;;;;;;;12.90;12.10;;;12.20;1.00;;;;;;4885480;29;20198;-44
2023/11/14 00:32:45;;;;;;;13.50;12.80;;;12.20;1.00;;;;;;4884867;29;20194;-41
2023/11/14 00:35:10;;;;;;;13.10;12.40;;;12.10;1.00;;;;;;4885162;29;20298;-41
2023/11/14 00:37:36;;;;;;;13.60;12.80;;;12.10;1.00;;;;;;4885168;29;20199;-44
2023/11/14 00:40:03;;;;;;;13.13;12.40;;;12.00;1.00;;;;;;4885269;29;20659;-40
2023/11/14 00:42:29;;;;;;;12.70;12.10;;;11.90;1.00;;;;;;4885396;29;20529;-40
2023/11/14 00:44:55;;;;;;;12.80;12.20;;;11.90;1.00;;;;;;4886237;29;20502;-41
2023/11/14 00:47:21;;;;;;;13.20;12.20;;;11.80;1.00;;;;;;4865304;29;20432;-41
2023/11/14 00:49:47;;;;;;;12.93;12.33;;;11.90;1.00;;;;;;4880518;29;20458;-42
2023/11/14 00:52:14;;;;;;;13.20;12.40;;;11.90;1.00;;;;;;4885336;29;20258;-46
2023/11/14 00:54:40;;;;;;;12.73;12.13;;;11.80;1.00;;;;;;4885180;29;20823;-42
2023/11/14 00:57:06;;;;;;;13.30;12.50;;;11.90;1.00;;;;;;4884875;29;20432;-40
2023/11/14 00:59:32;;;;;;;13.30;12.60;;;11.90;1.00;;;;;;4885311;29;20203;-42
2023/11/14 01:01:59;;;;;;;13.00;12.37;;;11.90;1.00;;;;;;4884970;29;20198;-42
2023/11/14 01:04:25;;;;;;;13.23;12.47;;;12.00;1.00;;;;;;4884114;29;20443;-39
2023/11/14 01:06:51;;;;;;;13.50;12.60;;;11.90;1.00;;;;;;4885388;29;20974;-40
2023/11/14 01:09:17;;;;;;;12.73;12.13;;;11.90;1.00;;;;;;4885143;29;20479;-43
2023/11/14 01:11:42;;;;;;;13.00;12.30;;;12.00;1.00;;;;;;4885046;29;20191;-41
2023/11/14 01:14:08;;;;;;;13.20;12.50;;;12.00;1.00;;;;;;4885003;29;20204;-43
2023/11/14 01:16:34;;;;;;;12.90;12.30;;;12.10;1.00;;;;;;4885376;29;20565;-41
2023/11/14 01:19:00;;;;;;;12.53;11.90;;;12.00;1.00;;;;;;4885287;29;20467;-43
2023/11/14 01:21:26;;;;;;;15.67;14.20;;;12.10;1.00;;;;;;4884941;29;20435;-43
2023/11/14 01:23:51;;;;;;;13.23;12.53;;;12.10;1.00;;;;;;4883703;29;20816;-41
2023/11/14 01:26:17;;;;;;;13.30;12.50;;;12.10;1.00;;;;;;4883929;29;20926;-42
2023/11/14 01:28:43;;;;;;;13.67;12.90;;;12.00;1.00;;;;;;4884766;29;20195;-42
2023/11/14 01:31:20;;;;;;;13.17;12.40;;;12.00;1.00;;;;;;4883418;29;20203;-41
2023/11/14 01:33:45;;;;;;;13.30;12.40;;;12.00;1.00;;;;;;4883370;29;20191;-39
2023/11/14 01:36:11;;;;;;;13.70;12.83;;;12.00;1.00;;;;;;4859294;29;20478;-41
2023/11/14 01:38:37;;;;;;;13.60;12.60;;;12.10;1.00;;;;;;4880308;29;20198;-40
2023/11/14 01:41:03;;;;;;;12.83;12.20;;;12.10;1.00;;;;;;4885049;29;20522;-42
2023/11/14 01:43:28;;;;;;;13.53;12.77;;;12.10;1.00;;;;;;4887668;29;20203;-42
2023/11/14 01:45:55;;;;;;;14.60;13.23;;;12.10;1.00;;;;;;4887560;29;20191;-44
2023/11/14 01:48:21;;;;;;;14.17;12.97;;;12.00;1.00;;;;;;4888126;29;20666;-40
2023/11/14 01:50:47;;;;;;;13.33;12.57;;;12.00;1.00;;;;;;4887744;29;20435;-42
2023/11/14 01:53:13;;;;;;;13.37;12.40;;;12.10;1.00;;;;;;4888072;29;20183;-42
2023/11/14 01:55:40;;;;;;;13.47;12.50;;;12.10;1.00;;;;;;4888066;29;20809;-47
2023/11/14 01:58:06;;;;;;;13.73;12.83;;;12.10;1.00;;;;;;4887792;29;20231;-41
2023/11/14 02:00:32;;;;;;;15.10;12.80;;;12.10;1.00;;;;;;4887984;29;20429;-41
2023/11/14 02:02:59;;;;;;;13.67;12.80;;;12.10;1.00;;;;;;4887929;29;20415;-41
2023/11/14 02:05:26;;;;;;;13.80;12.70;;;12.10;99.90;;;;;;4887235;29;20515;-40
2023/11/14 02:07:52;;;;;;;13.67;12.67;;;12.00;1.00;;;;;;4887361;29;20435;-39
2023/11/14 02:10:18;;;;;;;13.30;12.50;;;12.00;1.00;;;;;;4888523;29;20456;-40
2023/11/14 02:12:44;;;;;;;13.60;12.70;;;12.00;4.70;;;;;;4887415;29;20439;-42
2023/11/14 02:15:11;;;;;;;14.47;13.33;;;12.00;1.00;;;;;;4887577;29;20349;-40
2023/11/14 02:17:36;;;;;;;13.70;12.80;;;12.00;99.90;;;;;;4887543;29;20575;-41
2023/11/14 02:20:03;;;;;;;14.27;13.10;;;12.00;1.00;;;;;;4887476;29;20419;-43
2023/11/14 02:22:28;;;;;;;14.20;13.00;;;12.10;1.00;;;;;;4887475;29;20195;-44
2023/11/14 02:24:57;;;;;;;13.83;12.93;;;12.00;1.00;;;;;;4887929;29;20503;-40
2023/11/14 02:27:23;;;;;;;13.87;12.90;;;12.00;1.00;;;;;;4887522;29;20990;-41
2023/11/14 02:29:55;;;;;;;14.33;13.17;;;12.00;99.90;;;;;;4887233;29;20482;-40
2023/11/14 02:32:21;;;;;;;14.27;13.17;;;12.10;99.90;;;;;;4867544;29;20340;-40
2023/11/14 02:34:46;;;;;;;13.53;12.63;;;12.10;1.00;;;;;;4883279;29;20483;-41
2023/11/14 02:37:12;;;;;;;13.93;12.73;;;12.10;99.90;;;;;;4887548;29;20191;-41
2023/11/14 02:39:38;;;;;;;14.03;13.13;;;12.10;99.90;;;;;;4885949;29;20226;-40
2023/11/14 02:42:05;;;;;;;13.63;12.80;;;12.10;99.90;;;;;;4887123;29;20202;-41
2023/11/14 02:44:30;;;;;;;13.70;12.57;;;12.10;99.90;;;;;;4886828;29;20463;-40
2023/11/14 02:46:56;;;;;;;17.63;12.97;;;12.10;99.90;;;;;;4885821;29;20865;-41
2023/11/14 02:49:53;;;;;;;14.47;12.80;;;12.10;99.90;;;;;;4886852;29;20210;-41
2023/11/14 02:52:19;;;;;;;13.50;12.53;;;12.20;99.90;;;;;;4886017;29;20195;-40
2023/11/14 02:54:44;;;;;;;13.20;12.50;;;12.20;99.90;;;;;;4886892;29;20474;-42
2023/11/14 02:57:12;;;;;;;13.90;12.90;;;12.10;99.90;;;;;;4883366;29;20195;-40
2023/11/14 02:59:38;;;;;;;13.77;12.97;;;12.10;99.90;;;;;;4882076;29;20175;-40
2023/11/14 03:02:04;;;;;;;13.90;12.97;;;12.10;99.90;;;;;;4887009;29;20439;-40
2023/11/14 03:04:30;;;;;;;14.20;12.97;;;12.10;99.90;;;;;;4885921;29;20435;-40
2023/11/14 03:06:55;;;;;;;13.70;12.90;;;12.10;99.90;;;;;;4886619;29;20458;-42
2023/11/14 03:09:21;;;;;;;13.83;12.77;;;12.20;99.90;;;;;;4886744;29;20474;-41
2023/11/14 03:11:47;;;;;;;13.30;12.40;;;12.20;99.90;;;;;;4886582;29;20203;-40
2023/11/14 03:14:13;;;;;;;13.70;12.60;;;12.20;93.50;;;;;;4886734;29;20536;-40
2023/11/14 03:16:38;;;;;;;13.33;12.50;;;12.20;43.50;;;;;;4886940;29;20704;-40
2023/11/14 03:19:04;;;;;;;13.70;12.70;;;12.30;13.70;;;;;;4886258;29;20698;-42
2023/11/14 03:21:29;;;;;;;13.43;12.43;;;12.30;28.90;;;;;;4886610;29;20647;-40
2023/11/14 03:23:55;;;;;;;13.40;12.20;;;12.30;1.00;;;;;;4885963;29;20192;-42
2023/11/14 03:26:31;;;;;;;13.43;12.60;;;12.30;1.00;;;;;;4886507;29;20187;-41
2023/11/14 03:28:57;;;;;;;13.97;12.97;;;12.40;1.00;;;;;;4886238;29;20206;-41
2023/11/14 03:31:23;;;;;;;14.00;13.07;;;12.40;1.00;;;;;;4886425;29;20435;-40
2023/11/14 03:33:49;;;;;;;14.50;13.33;;;12.30;1.00;;;;;;4886316;29;20790;-42
2023/11/14 03:36:15;;;;;;;13.47;12.40;;;12.30;1.00;;;;;;4884256;29;20536;-45
2023/11/14 03:38:41;;;;;;;13.17;12.37;;;12.30;1.00;;;;;;4886234;29;20187;-41
2023/11/14 03:41:06;;;;;;;13.57;12.23;;;12.30;1.00;;;;;;4886007;29;20179;-40
2023/11/14 03:43:32;;;;;;;13.93;12.67;;;12.30;1.00;;;;;;4886152;29;20424;-40
2023/11/14 03:45:57;;;;;;;13.33;12.40;;;12.30;1.00;;;;;;4885609;29;20228;-40
2023/11/14 03:48:23;;;;;;;12.90;12.10;;;12.30;1.00;;;;;;4885949;29;20198;-43
2023/11/14 03:50:48;;;;;;;13.47;12.60;;;12.20;1.00;;;;;;4885975;29;20187;-41
2023/11/14 03:53:14;;;;;;;13.10;12.40;;;12.20;1.00;;;;;;4886133;29;20837;-44
2023/11/14 03:55:40;;;;;;;13.23;12.33;;;12.30;1.00;;;;;;4885860;29;20223;-40
2023/11/14 03:58:06;;;;;;;13.57;12.67;;;12.20;1.00;;;;;;4886061;29;20188;-40
2023/11/14 04:00:32;;;;;;;13.30;12.50;;;12.20;1.00;;;;;;4885299;29;21098;-41
2023/11/14 04:02:58;;;;;;;13.23;12.33;;;12.30;1.00;;;;;;4875680;29;20439;-40
2023/11/14 04:05:24;;;;;;;13.70;12.60;;;12.30;1.00;;;;;;4884904;29;20541;-41
2023/11/14 04:07:49;;;;;;;13.50;12.60;;;12.30;1.00;;;;;;4884303;29;20278;-39
2023/11/14 04:10:15;;;;;;;13.17;12.17;;;12.20;1.00;;;;;;4885760;29;20207;-41
2023/11/14 04:12:41;;;;;;;12.40;11.60;;;12.20;1.00;;;;;;4885949;29;20582;-44
2023/11/14 04:15:07;;;;;;;13.50;12.40;;;12.30;1.00;;;;;;4885557;29;20463;-42
2023/11/14 04:17:33;;;;;;;12.87;12.10;;;12.30;1.00;;;;;;4885521;29;20182;-41
2023/11/14 04:19:58;;;;;;;13.07;12.23;;;12.30;1.00;;;;;;4885714;29;20431;-41
2023/11/14 04:22:24;;;;;;;13.30;12.37;;;12.30;1.00;;;;;;4885893;29;20179;-41
2023/11/14 04:24:51;;;;;;;12.97;12.20;;;12.30;1.00;;;;;;4885463;29;20654;-41
2023/11/14 04:27:17;;;;;;;12.77;12.07;;;12.20;1.00;;;;;;4885605;29;20183;-40
2023/11/14 04:29:43;;;;;;;12.90;12.10;;;12.20;1.00;;;;;;4885148;29;20423;-45
2023/11/14 04:32:08;;;;;;;12.80;12.10;;;12.30;1.00;;;;;;4886043;29;20774;-39
2023/11/14 04:34:34;;;;;;;13.10;12.20;;;12.30;1.00;;;;;;4884926;29;20225;-41
2023/11/14 04:37:00;;;;;;;12.40;11.70;;;12.30;1.00;;;;;;4884964;29;20294;-42
2023/11/14 04:39:26;;;;;;;13.13;12.27;;;12.20;1.00;;;;;;4885502;29;20187;-41
2023/11/14 04:41:51;;;;;;;13.20;12.30;;;12.30;1.00;;;;;;4885584;29;21358;-40
2023/11/14 04:44:17;;;;;;;13.17;12.00;;;12.20;1.00;;;;;;4885509;29;20242;-40
2023/11/14 04:46:44;;;;;;;12.63;11.70;;;12.20;1.00;;;;;;4885476;29;20187;-43
2023/11/14 04:49:10;;;;;;;12.37;11.57;;;12.20;1.00;;;;;;4885065;29;20604;-41
2023/11/14 04:51:36;;;;;;;13.90;12.60;;;12.20;1.00;;;;;;4885375;29;20506;-39
2023/11/14 04:54:01;;;;;;;12.80;11.80;;;12.20;1.00;;;;;;4885531;29;20418;-41
2023/11/14 04:56:27;;;;;;;13.20;12.30;;;12.10;1.00;;;;;;4885097;29;20254;-41
2023/11/14 04:58:52;;;;;;;12.23;11.33;;;12.10;1.00;;;;;;4885772;29;20191;-46
2023/11/14 05:01:18;;;;;;;12.90;12.10;;;12.10;1.00;;;;;;4885021;29;20191;-40
2023/11/14 05:03:44;;;;;;;12.47;11.70;;;12.10;1.00;;;;;;4885102;29;20191;-40
2023/11/14 05:06:09;;;;;;;11.93;11.13;;;12.10;1.00;;;;;;4885040;29;20553;-42
2023/11/14 05:08:35;;;;;;;12.90;11.83;;;12.10;1.00;;;;;;4885285;29;20191;-47
2023/11/14 05:11:04;;;;;;;13.00;12.07;;;12.00;1.00;;;;;;4884797;29;20228;-41
2023/11/14 05:13:30;;;;;;;12.43;11.60;;;12.00;1.00;;;;;;4885437;29;20184;-41
2023/11/14 05:15:57;;;;;;;12.17;11.30;;;11.90;1.00;;;;;;4888207;29;20471;-41
2023/11/14 05:18:23;;;;;;;11.60;11.00;;;11.80;1.00;;;;;;4889093;29;20475;-40
2023/11/14 05:20:49;;;;;;;11.77;10.83;;;11.80;1.00;;;;;;4888452;29;20426;-41
2023/11/14 05:23:15;;;;;;;12.03;11.13;;;11.80;1.00;;;;;;4888816;29;20183;-41
2023/11/14 05:25:42;;;;;;;12.63;11.67;;;11.70;1.00;;;;;;4888698;29;20436;-41
2023/11/14 05:28:08;;;;;;;11.93;11.30;;;11.70;1.00;;;;;;4888227;29;20455;-41
2023/11/14 05:30:33;;;;;;;12.60;11.60;;;11.80;1.00;;;;;;4888772;29;20866;-40
2023/11/14 05:32:59;;;;;;;12.00;11.30;;;11.70;1.00;;;;;;4888415;29;20191;-41
2023/11/14 05:35:25;;;;;;;12.20;11.40;;;11.60;1.00;;;;;;4887626;29;21089;-40
2023/11/14 05:37:51;;;;;;;12.40;11.40;;;11.60;1.00;;;;;;4886755;29;20870;-42
2023/11/14 05:40:17;;;;;;;14.77;10.90;;;11.60;1.00;;;;;;4883125;29;20207;-45
2023/11/14 05:42:42;;;;;;;12.80;11.60;;;11.60;1.00;;;;;;4884683;29;20949;-41
2023/11/14 05:45:09;;;;;;;12.73;11.73;;;11.70;1.00;;;;;;4887745;29;20696;-44
2023/11/14 05:47:34;;;;;;;11.90;11.20;;;11.70;1.00;;;;;;4888104;29;20199;-43
2023/11/14 05:50:00;;;;;;;11.60;10.80;;;11.70;1.00;;;;;;4887958;29;20521;-42
2023/11/14 05:52:25;;;;;;;12.40;11.33;;;11.80;1.00;;;;;;4888044;29;20198;-41
2023/11/14 05:54:51;;;;;;;11.97;11.20;;;11.80;1.00;;;;;;4888334;29;20690;-42
2023/11/14 05:57:17;;;;;;;12.00;11.30;;;11.90;1.00;;;;;;4887946;29;20239;-41
2023/11/14 05:59:43;;;;;;;12.67;11.47;;;11.90;1.00;;;;;;4888238;29;20183;-40
2023/11/14 06:02:10;;;;;;;11.23;10.43;;;12.00;1.00;;;;;;4886330;29;20553;-41
2023/11/14 06:04:36;;;;;;;11.73;10.93;;;12.00;1.00;;;;;;4887354;29;20685;-41
2023/11/14 06:07:01;;;;;;;12.83;11.93;;;12.00;1.00;;;;;;4887682;29;20428;-40
2023/11/14 06:09:27;;;;;;;11.77;11.17;;;12.00;1.00;;;;;;4887615;29;20430;-41
2023/11/14 06:11:53;;;;;;;12.13;11.30;;;12.00;1.00;;;;;;4887788;29;20652;-41
2023/11/14 06:14:18;;;;;;;11.97;11.30;;;12.00;1.00;;;;;;4887215;29;20427;-42
2023/11/14 06:16:44;;;;;;;11.90;11.10;;;12.10;1.00;;;;;;4885719;29;20713;-41
2023/11/14 06:19:11;;;;;;;10.33;9.80;;;12.10;1.00;;;;;;4886292;29;20218;-40
2023/11/14 06:21:36;;;;;;;10.30;9.70;;;12.10;1.00;;;;;;4887175;29;20243;-41
2023/11/14 06:24:02;;;;;;;11.90;10.70;;;12.10;1.00;;;;;;4887900;29;20424;-42
2023/11/14 06:26:28;;;;;;;11.43;10.47;;;12.10;1.00;;;;;;4887075;29;20207;-40
2023/11/14 06:28:53;;;;;;;10.57;9.87;;;12.00;1.00;;;;;;4886373;29;20226;-40
2023/11/14 06:31:19;;;;;;;10.20;9.40;;;12.00;1.00;;;;;;4886461;29;20210;-39
2023/11/14 06:33:45;;;;;;;10.10;9.40;;;12.00;1.00;;;;;;4886919;29;20326;-40
2023/11/14 06:36:13;;;;;;;10.13;9.37;;;11.90;1.00;;;;;;4887546;29;20317;-40
2023/11/14 06:38:38;;;;;;;11.07;10.00;;;12.00;1.00;;;;;;4887674;29;20248;-40
2023/11/14 06:41:04;;;;;;;13.10;10.20;;;12.00;1.00;;;;;;4886791;29;20427;-40
2023/11/14 06:43:30;;;;;;;10.67;9.97;;;12.00;1.00;;;;;;4886966;29;20266;-42
2023/11/14 06:45:56;;;;;;;10.13;9.43;;;12.00;1.00;;;;;;4868136;29;20443;-39
2023/11/14 06:48:21;;;;;;;9.97;9.30;;;12.10;1.00;;;;;;4885155;29;20195;-40
2023/11/14 06:50:47;;;;;;;10.77;9.67;;;12.00;1.00;;;;;;4869253;29;20194;-39
2023/11/14 06:53:12;;;;;;;11.00;9.87;;;12.00;1.00;;;;;;4869190;29;20187;-40
2023/11/14 06:55:39;;;;;;;10.17;9.63;;;12.10;1.00;;;;;;4886089;29;20206;-40
2023/11/14 06:58:05;;;;;;;11.53;10.37;;;12.00;1.00;;;;;;4886184;29;20228;-40
2023/11/14 07:00:31;;;;;;;11.20;10.40;;;12.00;1.00;;;;;;4886004;29;20427;-39
2023/11/14 07:02:56;;;;;;;11.10;10.20;;;12.10;1.00;;;;;;4869265;29;20747;-39
2023/11/14 07:05:22;;;;;;;11.20;10.30;;;12.10;1.00;;;;;;4868650;29;20187;-40
2023/11/14 07:07:47;;;;;;;10.40;9.70;;;12.10;1.00;;;;;;4885455;29;20196;-39
2023/11/14 07:10:13;;;;;;;11.50;10.43;;;12.10;1.00;;;;;;4879005;29;20212;-40
2023/11/14 07:12:40;;;;;;;12.90;10.00;;;12.10;1.00;;;;;;4886738;29;20223;-41
2023/11/14 07:15:06;;;;;;;10.63;9.90;;;12.20;1.00;;;;;;4885493;29;20225;-40
2023/11/14 07:17:32;;;;;;;10.90;9.90;;;12.20;1.00;;;;;;4884935;29;20449;-42
2023/11/14 07:19:58;;;;;;;12.23;11.23;;;12.10;1.00;;;;;;4884687;29;20482;-40
2023/11/14 07:22:24;;;;;;;10.20;9.60;;;12.20;1.00;;;;;;4883974;29;20461;-40
2023/11/14 07:24:49;;;;;;;10.57;9.63;;;12.30;1.00;;;;;;4885942;29;20251;-41
2023/11/14 07:27:15;;;;;;;10.57;9.70;;;12.20;1.00;;;;;;4866432;29;20195;-42
2023/11/14 07:29:41;;;;;;;10.83;9.83;;;12.20;1.00;;;;;;4885045;29;20198;-40
2023/11/14 07:32:08;;;;;;;9.97;9.37;;;12.30;1.00;;;;;;4886010;29;20203;-39
2023/11/14 07:34:34;;;;;;;9.67;9.17;;;12.30;1.00;;;;;;4885774;29;20467;-39
2023/11/14 07:36:59;;;;;;;10.47;9.70;;;12.30;1.00;;;;;;4885127;29;20452;-38
2023/11/14 07:39:25;;;;;;;9.30;8.63;;;12.30;1.00;;;;;;4885369;29;20436;-39
2023/11/14 07:41:51;;;;;;;10.37;9.53;;;12.40;1.00;;;;;;4885649;29;20547;-39
2023/11/14 07:44:17;;;;;;;9.73;9.17;;;12.40;1.00;;;;;;4884835;29;20801;-41
2023/11/14 07:46:44;;;;;;;10.87;9.97;;;12.50;1.00;;;;;;4884423;29;20187;-39
2023/11/14 07:49:10;;;;;;;9.90;9.03;;;12.50;1.00;;;;;;4884382;29;20439;-41
2023/11/14 07:51:36;;;;;;;10.33;9.63;;;12.50;1.00;;;;;;4884852;29;20507;-39
2023/11/14 07:54:01;;;;;;;9.90;9.40;;;12.50;1.00;;;;;;4885008;29;20424;-42
2023/11/14 07:56:28;;;;;;;9.90;9.30;;;12.60;1.00;;;;;;4884729;29;20222;-38
2023/11/14 07:58:54;;;;;;;11.10;10.30;;;12.60;1.00;;;;;;4884191;29;20608;-40
2023/11/14 08:01:20;;;;;;;10.97;9.43;;;12.50;1.00;;;;;;4867885;29;20439;-40
2023/11/14 08:03:45;;;;;;;11.57;10.50;;;12.60;1.00;;;;;;4868765;29;20195;-38
2023/11/14 08:06:11;;;;;;;11.93;10.90;;;12.60;1.00;;;;;;4885668;29;20187;-40
2023/11/14 08:08:37;;;;;;;9.90;9.30;;;12.70;1.00;;;;;;4886150;29;20191;-46
2023/11/14 08:11:03;;;;;;;10.70;9.77;;;12.70;1.00;;;;;;4885464;29;20180;-40
2023/11/14 08:13:28;;;;;;;10.67;9.93;;;12.70;1.00;;;;;;4885512;29;20423;-40
2023/11/14 08:15:54;;;;;;;10.30;9.80;;;12.80;1.00;;;;;;4885219;29;20217;-42
2023/11/14 08:18:20;;;;;;;11.70;10.60;;;12.80;1.00;;;;;;4885130;29;20235;-43
2023/11/14 08:20:45;;;;;;;11.90;10.67;;;12.90;1.00;;;;;;4885279;29;20198;-41
2023/11/14 08:23:12;;;;;;;11.37;10.57;;;13.00;1.00;;;;;;4868638;29;20179;-40
2023/11/14 08:25:38;;;;;;;11.03;10.20;;;13.10;1.00;;;;;;4885252;29;20190;-41
2023/11/14 08:28:04;;;;;;;13.50;10.27;;;13.30;1.00;;;;;;4884628;29;20427;-40
2023/11/14 08:30:30;;;;;;;11.33;10.43;;;13.70;1.00;;;;;;4885068;29;20179;-44
2023/11/14 08:32:56;;;;;;;10.70;10.07;;;14.00;1.00;;;;;;4882319;29;20447;-42
2023/11/14 08:35:25;;;;;;;11.30;10.57;;;14.20;1.00;;;;;;4885432;29;20565;-40
2023/11/14 08:37:55;;;;;;;11.33;10.43;;;14.20;1.00;;;;;;4885993;29;20407;-40
2023/11/14 08:40:22;;;;;;;10.70;9.93;;;14.60;1.00;;;;;;4885651;29;20517;-40
2023/11/14 08:42:51;;;;;;;10.40;9.60;;;14.80;1.00;;;;;;4884994;29;20420;-40
2023/11/14 08:45:20;;;;;;;10.30;9.60;;;14.70;1.00;;;;;;4885522;29;20431;-40
2023/11/14 08:47:46;;;;;;;10.77;10.10;;;14.80;1.00;;;;;;4885110;29;20427;-42
2023/11/14 08:50:12;;;;;;;10.73;9.83;;;14.70;1.00;;;;;;4887719;29;20423;-42
2023/11/14 08:52:39;;;;;;;10.87;10.07;;;14.40;1.00;;;;;;4888977;29;20430;-41
2023/11/14 08:55:06;;;;;;;11.20;10.40;;;14.10;1.00;;;;;;4889197;29;21053;-44
2023/11/14 08:57:32;;;;;;;12.10;11.07;;;13.90;1.00;;;;;;4889383;29;20930;-41
2023/11/14 08:59:58;;;;;;;10.50;10.00;;;14.30;1.00;;;;;;4889283;29;20421;-42
2023/11/14 09:02:24;;;;;;;12.60;10.10;;;14.80;1.00;;;;;;4888055;29;20183;-41
2023/11/14 09:04:50;;;;;;;11.23;9.60;;;14.90;1.00;;;;;;4888453;29;20195;-38
2023/11/14 09:07:16;;;;;;;10.77;9.90;;;14.90;1.00;;;;;;4888846;29;20922;-39
2023/11/14 09:09:45;;;;;;;11.30;10.17;;;14.50;1.00;;;;;;4888869;29;20202;-41
2023/11/14 09:12:11;;;;;;;10.53;9.90;;;14.40;1.00;;;;;;4889337;29;20431;-41
2023/11/14 09:14:37;;;;;;;10.77;10.00;;;14.40;1.00;;;;;;4888699;29;20517;-40
2023/11/14 09:17:03;;;;;;;10.73;10.00;;;14.50;1.00;;;;;;4888738;29;20780;-44
2023/11/14 09:19:31;;;;;;;10.30;9.50;;;14.60;1.00;;;;;;4888616;29;20463;-42
2023/11/14 09:21:57;;;;;;;10.47;9.90;;;14.90;1.00;;;;;;4888282;29;20953;-42
2023/11/14 09:24:23;;;;;;;10.90;10.10;;;15.20;1.00;;;;;;4888466;29;20502;-45
2023/11/14 09:26:49;;;;;;;10.80;10.13;;;15.10;1.00;;;;;;4888693;29;20941;-43
2023/11/14 09:29:15;;;;;;;10.20;9.50;;;14.90;1.00;;;;;;4888397;29;20582;-44
2023/11/14 09:31:40;;;;;;;11.17;10.27;;;15.00;1.00;;;;;;4887271;29;21315;-56
2023/11/14 09:34:06;;;;;;;10.67;9.97;;;14.90;1.00;;;;;;4889239;29;20191;-54
2023/11/14 09:36:32;;;;;;;13.13;9.90;;;14.80;1.00;;;;;;4888406;29;20241;-59
2023/11/14 09:38:57;;;;;;;10.53;9.70;;;14.70;1.00;;;;;;4888635;29;20215;-43
2023/11/14 09:41:24;;;;;;;10.70;9.90;;;14.50;1.00;;;;;;4888362;29;20254;-44
2023/11/14 09:43:50;;;;;;;10.70;10.00;;;14.40;1.00;;;;;;4888347;29;20187;-42
2023/11/14 09:46:17;;;;;;;10.97;10.07;;;14.50;1.00;;;;;;4888505;29;20446;-41
2023/11/14 09:48:43;;;;;;;10.50;9.70;;;14.40;1.00;;;;;;4887834;29;20195;-42
2023/11/14 09:51:10;;;;;;;10.20;9.60;;;14.50;1.00;;;;;;4888415;29;20978;-42
2023/11/14 09:53:36;;;;;;;11.63;10.30;;;14.50;1.00;;;;;;4888503;29;20798;-40
2023/11/14 09:56:04;;;;;;;11.20;10.50;;;14.40;1.00;;;;;;4888086;29;20459;-40
2023/11/14 09:58:30;;;;;;;10.33;9.60;;;14.20;1.00;;;;;;4888047;29;20427;-42
2023/11/14 10:00:59;;;;;;;10.37;9.53;;;14.20;1.00;;;;;;4886552;29;20941;-40
2023/11/14 10:03:27;;;;;;;9.97;9.27;;;14.00;1.00;;;;;;4887092;29;20439;-40
2023/11/14 10:05:52;;;;;;;12.67;10.03;;;14.20;1.00;;;;;;4888170;29;20420;-42
2023/11/14 10:08:19;;;;;;;11.20;10.20;;;14.30;1.00;;;;;;4887435;29;20438;-44
2023/11/14 10:11:05;;;;;;;10.43;9.83;;;14.60;1.00;;;;;;4888042;29;20191;-41
2023/11/14 10:13:31;;;;;;;10.90;10.00;;;14.70;1.00;;;;;;4882831;29;20459;-40
2023/11/14 10:16:12;;;;;;;10.97;10.07;;;14.70;1.00;;;;;;4887820;29;20558;-40
2023/11/14 10:18:37;;;;;;;11.40;10.60;;;14.50;1.00;;;;;;4887717;29;20317;-42
2023/11/14 10:21:03;;;;;;;11.10;10.33;;;14.50;1.00;;;;;;4888021;29;20498;-40
2023/11/14 10:23:33;;;;;;;10.40;9.50;;;15.00;1.00;;;;;;4887847;29;20183;-42
2023/11/14 10:26:06;;;;;;;11.47;10.73;;;15.60;1.00;;;;;;4887621;29;20187;-46
2023/11/14 10:28:32;;;;;;;10.93;10.23;;;15.90;99.90;;;;;;4887726;29;20415;-41
2023/11/14 10:30:59;;;;;;;11.30;10.30;;;15.90;99.90;;;;;;4886969;29;20427;-40
2023/11/14 10:33:30;;;;;;;11.20;10.10;;;15.70;99.90;;;;;;4886854;29;20420;-43
2023/11/14 10:36:08;;;;;;;10.90;10.23;;;15.70;99.90;;;;;;4887377;29;20474;-43
2023/11/14 10:38:34;;;;;;;11.30;10.40;;;15.60;99.90;;;;;;4886454;29;20448;-41
2023/11/14 10:40:59;;;;;;;11.30;10.50;;;15.30;99.90;;;;;;4887512;29;20420;-40
2023/11/14 10:43:29;;;;;;;10.27;9.67;;;15.20;99.90;;;;;;4885495;29;20511;-41
2023/11/14 10:45:55;;;;;;;10.50;9.80;;;14.90;99.90;;;;;;4887272;29;20188;-40
2023/11/14 10:48:24;;;;;;;10.37;9.77;;;14.80;99.90;;;;;;4887140;29;20426;-40
2023/11/14 10:50:51;;;;;;;10.60;9.80;;;14.60;99.90;;;;;;4886795;29;20963;-40
2023/11/14 10:53:17;;;;;;;11.00;10.20;;;14.60;99.90;;;;;;4887277;29;20766;-40
2023/11/14 10:55:47;;;;;;;9.97;9.10;;;14.60;1.00;;;;;;4887265;29;20467;-40
2023/11/14 10:58:16;;;;;;;11.20;10.20;;;14.60;1.00;;;;;;4887067;29;20443;-41
2023/11/14 11:00:42;;;;;;;10.60;9.50;;;14.80;1.00;;;;;;4887029;29;20438;-44
2023/11/14 11:03:08;;;;;;;10.30;9.47;;;14.90;99.90;;;;;;4887210;29;20424;-41
2023/11/14 11:05:34;;;;;;;10.00;9.10;;;15.20;99.90;;;;;;4887198;29;20699;-41
2023/11/14 11:08:07;;;;;;;11.93;10.20;;;15.20;99.90;;;;;;4886877;29;20427;-40
2023/11/14 11:10:35;;;;;;;11.23;10.13;;;15.10;99.90;;;;;;4886853;29;20249;-44
2023/11/14 11:13:06;;;;;;;10.30;9.57;;;14.90;99.90;;;;;;4885156;29;20446;-41
2023/11/14 11:15:45;;;;;;;11.03;10.17;;;14.90;99.90;;;;;;4885579;29;21045;-40
2023/11/14 11:18:12;;;;;;;9.67;9.13;;;14.80;99.90;;;;;;4886112;29;20784;-41
2023/11/14 11:20:38;;;;;;;10.87;9.80;;;14.80;99.90;;;;;;4886954;29;20419;-41
2023/11/14 11:23:13;;;;;;;10.10;9.50;;;14.70;99.90;;;;;;4886668;29;20774;-43
2023/11/14 11:25:48;;;;;;;9.83;9.13;;;14.70;99.90;;;;;;4886335;29;20787;-42
2023/11/14 11:28:32;;;;;;;9.80;9.20;;;14.40;99.90;;;;;;4869424;29;21209;-40
2023/11/14 11:31:23;;;;;;;10.47;9.67;;;14.50;99.90;;;;;;4886626;29;20474;-40
2023/11/14 11:33:49;;;;;;;10.43;9.50;;;14.40;99.90;;;;;;4886659;29;20431;-45
2023/11/14 11:36:24;;;;;;;10.20;9.60;;;14.50;99.90;;;;;;4886302;29;20493;-40
2023/11/14 11:38:59;;;;;;;11.03;10.13;;;14.60;99.90;;;;;;4886455;29;20992;-40
2023/11/14 11:41:26;;;;;;;10.80;9.73;;;14.80;99.90;;;;;;4886083;29;20558;-41
2023/11/14 11:44:12;;;;;;;9.97;9.03;;;14.80;99.90;;;;;;4886235;29;21236;-39
2023/11/14 11:46:39;;;;;;;11.13;10.20;;;15.20;99.90;;;;;;4885180;29;20447;-39
2023/11/14 11:49:10;;;;;;;10.50;9.80;;;15.30;99.90;;;;;;4885962;29;20482;-40
2023/11/14 11:51:37;;;;;;;10.33;9.53;;;15.40;99.90;;;;;;4886240;29;20534;-40
2023/11/14 11:54:27;;;;;;;9.80;9.03;;;15.20;99.90;;;;;;4886789;29;20463;-39
2023/11/14 11:57:05;;;;;;;11.40;10.30;;;15.20;99.90;;;;;;4885984;29;20427;-42
2023/11/14 11:59:54;;;;;;;10.40;9.80;;;15.20;99.90;;;;;;4885999;29;20419;-40
2023/11/14 12:02:23;;;;;;;10.63;9.83;;;15.10;99.90;;;;;;4861654;29;20947;-39
2023/11/14 12:04:55;;;;;;;10.80;9.80;;;14.90;99.90;;;;;;4885973;29;20429;-42
2023/11/14 12:07:21;;;;;;;10.80;9.80;;;14.80;99.90;;;;;;4886231;29;20426;-40
2023/11/14 12:09:51;;;;;;;10.40;9.60;;;14.70;99.90;;;;;;4885886;29;20788;-41
2023/11/14 12:12:16;;;;;;;10.90;10.00;;;14.60;99.90;;;;;;4885772;29;20239;-41
2023/11/14 12:14:42;;;;;;;10.30;9.47;;;14.60;99.90;;;;;;4884568;29;20443;-41
2023/11/14 12:17:08;;;;;;;10.70;9.90;;;14.60;99.90;;;;;;4885926;29;20902;-40
2023/11/14 12:19:34;;;;;;;10.07;9.30;;;14.80;99.90;;;;;;4885235;29;20223;-44
2023/11/14 12:22:01;;;;;;;10.70;9.67;;;14.80;99.90;;;;;;4885796;29;20323;-39
2023/11/14 12:24:27;;;;;;;10.60;9.70;;;14.80;99.90;;;;;;4885465;29;20420;-40
2023/11/14 12:26:52;;;;;;;10.47;9.87;;;14.80;99.90;;;;;;4885188;29;20955;-39
2023/11/14 12:29:19;;;;;;;10.37;9.57;;;14.80;99.90;;;;;;4885605;29;20183;-41
2023/11/14 12:31:45;;;;;;;10.87;10.00;;;14.60;99.90;;;;;;4885749;29;20852;-41
2023/11/14 12:34:11;;;;;;;10.70;9.80;;;14.80;99.90;;;;;;4865295;29;20549;-41
2023/11/14 12:36:36;;;;;;;9.80;9.30;;;14.70;99.90;;;;;;4881414;29;20608;-41